METAR Formatted Surface Weather Observation
Issued by NWS

Home | Current Version | Previous Version | Text Only | Print | Product List | Glossary On
Versions: 1 2 3 4 5 6 7 8 9 10
934
SAUS44 KMOB 282359
MTR0J4
METAR K0J4 282358Z AUTO 00000KT 10SM FEW050 26/22 A2996 RMK AO2
SLP140 60000 T02610217 10317 20261 51008



USA.gov is the U.S. government's official web portal to all federal, state and local government web resources and services.